sensor_id;sensor_type;location;lat;lon;timestamp;P1;durP1;ratioP1;P2;durP2;ratioP2
63173;SDS011;49265;54.526;9.028;2024-01-15T00:01:04;23.23;;;2.63;;
63173;SDS011;49265;54.526;9.028;2024-01-15T00:03:29;24.27;;;2.70;;
63173;SDS011;49265;54.526;9.028;2024-01-15T00:05:55;15.13;;;3.10;;
63173;SDS011;49265;54.526;9.028;2024-01-15T00:08:20;22.48;;;3.13;;
63173;SDS011;49265;54.526;9.028;2024-01-15T00:10:45;24.23;;;3.75;;
63173;SDS011;49265;54.526;9.028;2024-01-15T00:13:10;18.80;;;2.43;;
63173;SDS011;49265;54.526;9.028;2024-01-15T00:15:36;24.02;;;3.42;;
63173;SDS011;49265;54.526;9.028;2024-01-15T00:18:01;27.30;;;4.30;;
63173;SDS011;49265;54.526;9.028;2024-01-15T00:20:26;25.00;;;3.40;;
63173;SDS011;49265;54.526;9.028;2024-01-15T00:22:52;15.70;;;2.63;;
63173;SDS011;49265;54.526;9.028;2024-01-15T00:25:17;20.10;;;2.70;;
63173;SDS011;49265;54.526;9.028;2024-01-15T00:27:42;19.50;;;2.95;;
63173;SDS011;49265;54.526;9.028;2024-01-15T00:30:08;27.98;;;3.60;;
63173;SDS011;49265;54.526;9.028;2024-01-15T00:32:34;24.40;;;2.90;;
63173;SDS011;49265;54.526;9.028;2024-01-15T00:34:59;22.15;;;3.20;;
63173;SDS011;49265;54.526;9.028;2024-01-15T00:37:25;24.07;;;3.50;;
63173;SDS011;49265;54.526;9.028;2024-01-15T00:39:50;19.13;;;2.20;;
63173;SDS011;49265;54.526;9.028;2024-01-15T00:42:15;16.50;;;2.25;;
63173;SDS011;49265;54.526;9.028;2024-01-15T00:44:41;20.08;;;3.30;;
63173;SDS011;49265;54.526;9.028;2024-01-15T00:47:07;18.92;;;2.60;;
63173;SDS011;49265;54.526;9.028;2024-01-15T00:49:32;15.23;;;2.22;;
63173;SDS011;49265;54.526;9.028;2024-01-15T00:51:57;15.80;;;2.65;;
63173;SDS011;49265;54.526;9.028;2024-01-15T00:54:23;21.35;;;2.35;;
63173;SDS011;49265;54.526;9.028;2024-01-15T00:56:48;14.00;;;2.55;;
63173;SDS011;49265;54.526;9.028;2024-01-15T00:59:13;31.73;;;3.88;;
63173;SDS011;49265;54.526;9.028;2024-01-15T01:01:40;15.82;;;2.10;;
63173;SDS011;49265;54.526;9.028;2024-01-15T01:04:08;21.50;;;2.85;;
63173;SDS011;49265;54.526;9.028;2024-01-15T01:06:34;14.68;;;2.13;;
63173;SDS011;49265;54.526;9.028;2024-01-15T01:08:59;21.10;;;3.25;;
63173;SDS011;49265;54.526;9.028;2024-01-15T01:11:25;19.20;;;3.13;;
63173;SDS011;49265;54.526;9.028;2024-01-15T01:13:50;21.27;;;3.45;;
63173;SDS011;49265;54.526;9.028;2024-01-15T01:16:15;13.45;;;2.65;;
63173;SDS011;49265;54.526;9.028;2024-01-15T01:18:41;21.58;;;2.75;;
63173;SDS011;49265;54.526;9.028;2024-01-15T01:21:06;11.25;;;2.15;;
63173;SDS011;49265;54.526;9.028;2024-01-15T01:23:31;15.00;;;2.50;;
63173;SDS011;49265;54.526;9.028;2024-01-15T01:25:56;15.07;;;1.75;;
63173;SDS011;49265;54.526;9.028;2024-01-15T01:28:22;16.00;;;2.75;;
63173;SDS011;49265;54.526;9.028;2024-01-15T01:30:47;16.47;;;2.70;;
63173;SDS011;49265;54.526;9.028;2024-01-15T01:33:13;16.42;;;1.98;;
63173;SDS011;49265;54.526;9.028;2024-01-15T01:35:38;12.88;;;1.85;;
63173;SDS011;49265;54.526;9.028;2024-01-15T01:38:03;16.30;;;2.45;;
63173;SDS011;49265;54.526;9.028;2024-01-15T01:40:29;11.85;;;2.15;;
63173;SDS011;49265;54.526;9.028;2024-01-15T01:42:54;16.55;;;1.75;;
63173;SDS011;49265;54.526;9.028;2024-01-15T01:45:19;15.65;;;1.92;;
63173;SDS011;49265;54.526;9.028;2024-01-15T01:47:45;14.20;;;2.05;;
63173;SDS011;49265;54.526;9.028;2024-01-15T01:50:10;14.53;;;2.03;;
63173;SDS011;49265;54.526;9.028;2024-01-15T01:52:36;12.15;;;3.58;;
63173;SDS011;49265;54.526;9.028;2024-01-15T01:55:01;12.27;;;1.45;;
63173;SDS011;49265;54.526;9.028;2024-01-15T01:57:27;11.43;;;1.40;;
63173;SDS011;49265;54.526;9.028;2024-01-15T01:59:53;9.10;;;1.75;;
63173;SDS011;49265;54.526;9.028;2024-01-15T02:02:19;7.93;;;1.73;;
63173;SDS011;49265;54.526;9.028;2024-01-15T02:04:44;10.27;;;2.42;;
63173;SDS011;49265;54.526;9.028;2024-01-15T02:07:12;12.38;;;1.73;;
63173;SDS011;49265;54.526;9.028;2024-01-15T02:09:37;10.02;;;1.77;;
63173;SDS011;49265;54.526;9.028;2024-01-15T02:12:03;8.10;;;1.50;;
63173;SDS011;49265;54.526;9.028;2024-01-15T02:14:28;9.93;;;2.47;;
63173;SDS011;49265;54.526;9.028;2024-01-15T02:16:54;11.93;;;1.95;;
63173;SDS011;49265;54.526;9.028;2024-01-15T02:19:19;14.68;;;1.40;;
63173;SDS011;49265;54.526;9.028;2024-01-15T02:21:44;15.38;;;1.63;;
63173;SDS011;49265;54.526;9.028;2024-01-15T02:24:10;10.48;;;1.65;;
63173;SDS011;49265;54.526;9.028;2024-01-15T02:26:35;8.48;;;1.52;;
63173;SDS011;49265;54.526;9.028;2024-01-15T02:29:02;11.48;;;1.80;;
63173;SDS011;49265;54.526;9.028;2024-01-15T02:31:27;12.70;;;1.80;;
63173;SDS011;49265;54.526;9.028;2024-01-15T02:33:53;13.75;;;2.55;;
63173;SDS011;49265;54.526;9.028;2024-01-15T02:36:18;12.73;;;1.65;;
63173;SDS011;49265;54.526;9.028;2024-01-15T02:38:43;19.30;;;2.65;;
63173;SDS011;49265;54.526;9.028;2024-01-15T02:41:09;18.42;;;2.85;;
63173;SDS011;49265;54.526;9.028;2024-01-15T02:43:34;18.75;;;2.65;;
63173;SDS011;49265;54.526;9.028;2024-01-15T02:45:59;18.67;;;2.57;;
63173;SDS011;49265;54.526;9.028;2024-01-15T02:48:25;26.92;;;2.65;;
63173;SDS011;49265;54.526;9.028;2024-01-15T02:50:50;22.42;;;4.00;;
63173;SDS011;49265;54.526;9.028;2024-01-15T02:53:15;22.10;;;2.80;;
63173;SDS011;49265;54.526;9.028;2024-01-15T02:55:41;16.88;;;2.50;;
63173;SDS011;49265;54.526;9.028;2024-01-15T02:58:06;10.32;;;1.70;;
63173;SDS011;49265;54.526;9.028;2024-01-15T03:00:32;20.90;;;2.55;;
63173;SDS011;49265;54.526;9.028;2024-01-15T03:02:57;15.40;;;2.73;;
63173;SDS011;49265;54.526;9.028;2024-01-15T03:05:22;13.93;;;2.20;;
63173;SDS011;49265;54.526;9.028;2024-01-15T03:07:48;10.73;;;1.83;;
63173;SDS011;49265;54.526;9.028;2024-01-15T03:10:13;13.35;;;2.25;;
63173;SDS011;49265;54.526;9.028;2024-01-15T03:12:38;13.05;;;1.85;;
63173;SDS011;49265;54.526;9.028;2024-01-15T03:15:04;14.52;;;1.92;;
63173;SDS011;49265;54.526;9.028;2024-01-15T03:17:30;7.75;;;2.30;;
63173;SDS011;49265;54.526;9.028;2024-01-15T03:19:55;15.50;;;2.80;;
63173;SDS011;49265;54.526;9.028;2024-01-15T03:22:20;11.18;;;2.83;;
63173;SDS011;49265;54.526;9.028;2024-01-15T03:24:46;20.30;;;2.30;;
63173;SDS011;49265;54.526;9.028;2024-01-15T03:27:11;13.77;;;2.22;;
63173;SDS011;49265;54.526;9.028;2024-01-15T03:29:36;21.10;;;3.13;;
63173;SDS011;49265;54.526;9.028;2024-01-15T03:32:01;14.75;;;2.60;;
63173;SDS011;49265;54.526;9.028;2024-01-15T03:34:27;15.98;;;2.35;;
63173;SDS011;49265;54.526;9.028;2024-01-15T03:36:52;15.60;;;1.60;;
63173;SDS011;49265;54.526;9.028;2024-01-15T03:39:17;17.40;;;2.60;;
63173;SDS011;49265;54.526;9.028;2024-01-15T03:41:43;21.33;;;2.47;;
63173;SDS011;49265;54.526;9.028;2024-01-15T03:44:08;16.67;;;2.15;;
63173;SDS011;49265;54.526;9.028;2024-01-15T03:46:33;21.17;;;2.38;;
63173;SDS011;49265;54.526;9.028;2024-01-15T03:48:59;13.07;;;2.10;;
63173;SDS011;49265;54.526;9.028;2024-01-15T03:51:24;19.48;;;2.80;;
63173;SDS011;49265;54.526;9.028;2024-01-15T03:53:49;17.98;;;3.00;;
63173;SDS011;49265;54.526;9.028;2024-01-15T03:56:15;17.77;;;2.58;;
63173;SDS011;49265;54.526;9.028;2024-01-15T03:58:40;12.75;;;1.95;;
63173;SDS011;49265;54.526;9.028;2024-01-15T04:01:09;13.10;;;2.10;;
63173;SDS011;49265;54.526;9.028;2024-01-15T04:03:34;15.25;;;1.95;;
63173;SDS011;49265;54.526;9.028;2024-01-15T04:06:00;11.30;;;1.60;;
63173;SDS011;49265;54.526;9.028;2024-01-15T04:08:25;16.50;;;1.88;;
63173;SDS011;49265;54.526;9.028;2024-01-15T04:10:50;11.82;;;2.28;;
63173;SDS011;49265;54.526;9.028;2024-01-15T04:13:16;11.20;;;2.13;;
63173;SDS011;49265;54.526;9.028;2024-01-15T04:15:41;16.95;;;2.45;;
63173;SDS011;49265;54.526;9.028;2024-01-15T04:18:06;15.40;;;2.55;;
63173;SDS011;49265;54.526;9.028;2024-01-15T04:20:32;15.48;;;2.08;;
63173;SDS011;49265;54.526;9.028;2024-01-15T04:22:57;15.38;;;2.53;;
63173;SDS011;49265;54.526;9.028;2024-01-15T04:25:22;13.20;;;2.20;;
63173;SDS011;49265;54.526;9.028;2024-01-15T04:27:47;11.07;;;2.83;;
63173;SDS011;49265;54.526;9.028;2024-01-15T04:30:13;20.75;;;2.92;;
63173;SDS011;49265;54.526;9.028;2024-01-15T04:32:38;19.33;;;2.30;;
63173;SDS011;49265;54.526;9.028;2024-01-15T04:35:04;12.95;;;2.08;;
63173;SDS011;49265;54.526;9.028;2024-01-15T04:37:29;16.98;;;2.47;;
63173;SDS011;49265;54.526;9.028;2024-01-15T04:39:54;15.00;;;2.33;;
63173;SDS011;49265;54.526;9.028;2024-01-15T04:42:20;15.27;;;2.90;;
63173;SDS011;49265;54.526;9.028;2024-01-15T04:44:46;14.50;;;2.80;;
63173;SDS011;49265;54.526;9.028;2024-01-15T04:47:11;9.88;;;1.85;;
63173;SDS011;49265;54.526;9.028;2024-01-15T04:49:36;20.08;;;2.55;;
63173;SDS011;49265;54.526;9.028;2024-01-15T04:52:02;11.57;;;2.60;;
63173;SDS011;49265;54.526;9.028;2024-01-15T04:54:27;7.95;;;1.83;;
63173;SDS011;49265;54.526;9.028;2024-01-15T04:56:52;7.20;;;1.52;;
63173;SDS011;49265;54.526;9.028;2024-01-15T04:59:18;15.93;;;3.67;;
63173;SDS011;49265;54.526;9.028;2024-01-15T05:01:43;11.07;;;1.88;;
63173;SDS011;49265;54.526;9.028;2024-01-15T05:04:08;11.05;;;2.55;;
63173;SDS011;49265;54.526;9.028;2024-01-15T05:06:34;13.38;;;2.28;;
63173;SDS011;49265;54.526;9.028;2024-01-15T05:08:59;12.93;;;3.10;;
63173;SDS011;49265;54.526;9.028;2024-01-15T05:11:25;17.88;;;3.08;;
63173;SDS011;49265;54.526;9.028;2024-01-15T05:13:50;13.32;;;3.15;;
63173;SDS011;49265;54.526;9.028;2024-01-15T05:16:15;14.23;;;2.15;;
63173;SDS011;49265;54.526;9.028;2024-01-15T05:18:41;11.48;;;1.80;;
63173;SDS011;49265;54.526;9.028;2024-01-15T05:21:06;11.15;;;2.47;;
63173;SDS011;49265;54.526;9.028;2024-01-15T05:23:31;10.32;;;2.25;;
63173;SDS011;49265;54.526;9.028;2024-01-15T05:25:57;12.25;;;2.88;;
63173;SDS011;49265;54.526;9.028;2024-01-15T05:28:22;14.18;;;1.83;;
63173;SDS011;49265;54.526;9.028;2024-01-15T05:30:48;17.05;;;2.05;;
63173;SDS011;49265;54.526;9.028;2024-01-15T05:33:13;18.70;;;1.83;;
63173;SDS011;49265;54.526;9.028;2024-01-15T05:35:38;11.40;;;2.47;;
63173;SDS011;49265;54.526;9.028;2024-01-15T05:38:04;14.73;;;2.15;;
63173;SDS011;49265;54.526;9.028;2024-01-15T05:40:29;13.20;;;2.40;;
63173;SDS011;49265;54.526;9.028;2024-01-15T05:42:54;15.85;;;2.50;;
63173;SDS011;49265;54.526;9.028;2024-01-15T05:45:20;11.73;;;3.50;;
63173;SDS011;49265;54.526;9.028;2024-01-15T05:47:45;13.07;;;2.72;;
63173;SDS011;49265;54.526;9.028;2024-01-15T05:50:10;12.30;;;2.25;;
63173;SDS011;49265;54.526;9.028;2024-01-15T05:52:36;12.63;;;2.38;;
63173;SDS011;49265;54.526;9.028;2024-01-15T05:55:01;12.60;;;2.53;;
63173;SDS011;49265;54.526;9.028;2024-01-15T05:57:27;14.93;;;3.10;;
63173;SDS011;49265;54.526;9.028;2024-01-15T05:59:53;16.50;;;3.72;;
63173;SDS011;49265;54.526;9.028;2024-01-15T06:02:18;20.83;;;3.80;;
63173;SDS011;49265;54.526;9.028;2024-01-15T06:04:43;15.02;;;2.58;;
63173;SDS011;49265;54.526;9.028;2024-01-15T06:07:09;13.85;;;1.83;;
63173;SDS011;49265;54.526;9.028;2024-01-15T06:09:34;15.20;;;2.42;;
63173;SDS011;49265;54.526;9.028;2024-01-15T06:11:59;15.93;;;1.83;;
63173;SDS011;49265;54.526;9.028;2024-01-15T06:14:25;15.88;;;2.13;;
63173;SDS011;49265;54.526;9.028;2024-01-15T06:16:50;17.50;;;3.00;;
63173;SDS011;49265;54.526;9.028;2024-01-15T06:19:15;15.05;;;1.58;;
63173;SDS011;49265;54.526;9.028;2024-01-15T06:21:41;17.67;;;3.78;;
63173;SDS011;49265;54.526;9.028;2024-01-15T06:24:06;8.32;;;1.67;;
63173;SDS011;49265;54.526;9.028;2024-01-15T06:26:31;11.32;;;1.70;;
63173;SDS011;49265;54.526;9.028;2024-01-15T06:28:57;19.13;;;2.00;;
63173;SDS011;49265;54.526;9.028;2024-01-15T06:31:22;16.05;;;2.10;;
63173;SDS011;49265;54.526;9.028;2024-01-15T06:33:47;12.85;;;1.80;;
63173;SDS011;49265;54.526;9.028;2024-01-15T06:36:14;13.25;;;2.03;;
63173;SDS011;49265;54.526;9.028;2024-01-15T06:38:41;11.18;;;2.25;;
63173;SDS011;49265;54.526;9.028;2024-01-15T06:41:06;15.57;;;2.20;;
63173;SDS011;49265;54.526;9.028;2024-01-15T06:43:32;13.73;;;2.58;;
63173;SDS011;49265;54.526;9.028;2024-01-15T06:45:57;12.00;;;2.03;;
63173;SDS011;49265;54.526;9.028;2024-01-15T06:48:22;11.82;;;2.00;;
63173;SDS011;49265;54.526;9.028;2024-01-15T06:50:48;10.88;;;2.35;;
63173;SDS011;49265;54.526;9.028;2024-01-15T06:53:13;13.02;;;2.92;;
63173;SDS011;49265;54.526;9.028;2024-01-15T06:55:38;12.77;;;2.28;;
63173;SDS011;49265;54.526;9.028;2024-01-15T06:58:04;12.13;;;1.70;;
63173;SDS011;49265;54.526;9.028;2024-01-15T07:00:29;10.75;;;1.80;;
63173;SDS011;49265;54.526;9.028;2024-01-15T07:02:55;14.07;;;2.17;;
63173;SDS011;49265;54.526;9.028;2024-01-15T07:05:20;11.65;;;1.70;;
63173;SDS011;49265;54.526;9.028;2024-01-15T07:07:45;11.52;;;2.10;;
63173;SDS011;49265;54.526;9.028;2024-01-15T07:10:12;16.10;;;1.98;;
63173;SDS011;49265;54.526;9.028;2024-01-15T07:12:37;5.05;;;1.10;;
63173;SDS011;49265;54.526;9.028;2024-01-15T07:15:03;10.02;;;1.75;;
63173;SDS011;49265;54.526;9.028;2024-01-15T07:17:29;22.10;;;2.15;;
63173;SDS011;49265;54.526;9.028;2024-01-15T07:19:54;9.77;;;2.15;;
63173;SDS011;49265;54.526;9.028;2024-01-15T07:22:19;7.50;;;1.57;;
63173;SDS011;49265;54.526;9.028;2024-01-15T07:24:45;8.55;;;1.65;;
63173;SDS011;49265;54.526;9.028;2024-01-15T07:27:10;10.40;;;1.77;;
63173;SDS011;49265;54.526;9.028;2024-01-15T07:29:36;14.45;;;1.95;;
63173;SDS011;49265;54.526;9.028;2024-01-15T07:32:02;12.52;;;1.98;;
63173;SDS011;49265;54.526;9.028;2024-01-15T07:34:28;7.03;;;1.65;;
63173;SDS011;49265;54.526;9.028;2024-01-15T07:36:53;6.93;;;1.77;;
63173;SDS011;49265;54.526;9.028;2024-01-15T07:39:19;9.18;;;2.00;;
63173;SDS011;49265;54.526;9.028;2024-01-15T07:41:44;7.70;;;2.08;;
63173;SDS011;49265;54.526;9.028;2024-01-15T07:44:09;10.35;;;1.92;;
63173;SDS011;49265;54.526;9.028;2024-01-15T07:46:34;11.95;;;1.90;;
63173;SDS011;49265;54.526;9.028;2024-01-15T07:49:00;10.93;;;1.65;;
63173;SDS011;49265;54.526;9.028;2024-01-15T07:51:25;16.15;;;2.17;;
63173;SDS011;49265;54.526;9.028;2024-01-15T07:53:52;6.57;;;1.15;;
63173;SDS011;49265;54.526;9.028;2024-01-15T07:56:18;16.05;;;1.55;;
63173;SDS011;49265;54.526;9.028;2024-01-15T07:58:43;11.65;;;1.70;;
63173;SDS011;49265;54.526;9.028;2024-01-15T08:01:08;6.60;;;1.70;;
63173;SDS011;49265;54.526;9.028;2024-01-15T08:03:34;12.68;;;1.50;;
63173;SDS011;49265;54.526;9.028;2024-01-15T08:05:59;8.35;;;1.67;;
63173;SDS011;49265;54.526;9.028;2024-01-15T08:08:25;9.18;;;1.38;;
63173;SDS011;49265;54.526;9.028;2024-01-15T08:10:52;4.38;;;1.35;;
63173;SDS011;49265;54.526;9.028;2024-01-15T08:13:17;8.10;;;1.23;;
63173;SDS011;49265;54.526;9.028;2024-01-15T08:15:42;5.88;;;1.48;;
63173;SDS011;49265;54.526;9.028;2024-01-15T08:18:08;12.43;;;4.53;;
63173;SDS011;49265;54.526;9.028;2024-01-15T08:20:34;7.07;;;1.23;;
63173;SDS011;49265;54.526;9.028;2024-01-15T08:22:59;2.53;;;0.98;;
63173;SDS011;49265;54.526;9.028;2024-01-15T08:25:25;8.63;;;1.45;;
63173;SDS011;49265;54.526;9.028;2024-01-15T08:27:51;6.63;;;1.13;;
63173;SDS011;49265;54.526;9.028;2024-01-15T08:30:16;5.10;;;1.23;;
63173;SDS011;49265;54.526;9.028;2024-01-15T08:32:44;5.43;;;1.40;;
63173;SDS011;49265;54.526;9.028;2024-01-15T08:35:09;8.50;;;1.00;;
63173;SDS011;49265;54.526;9.028;2024-01-15T08:37:35;3.65;;;0.90;;
63173;SDS011;49265;54.526;9.028;2024-01-15T08:40:00;7.63;;;1.40;;
63173;SDS011;49265;54.526;9.028;2024-01-15T08:42:25;4.70;;;1.20;;
63173;SDS011;49265;54.526;9.028;2024-01-15T08:44:50;3.33;;;0.90;;
63173;SDS011;49265;54.526;9.028;2024-01-15T08:47:16;2.60;;;0.70;;
63173;SDS011;49265;54.526;9.028;2024-01-15T08:49:42;2.75;;;0.85;;
63173;SDS011;49265;54.526;9.028;2024-01-15T08:52:08;3.08;;;0.88;;
63173;SDS011;49265;54.526;9.028;2024-01-15T08:54:34;3.90;;;1.10;;
63173;SDS011;49265;54.526;9.028;2024-01-15T08:56:59;2.53;;;0.73;;
63173;SDS011;49265;54.526;9.028;2024-01-15T08:59:24;3.47;;;0.85;;
63173;SDS011;49265;54.526;9.028;2024-01-15T09:01:54;4.45;;;1.15;;
63173;SDS011;49265;54.526;9.028;2024-01-15T09:04:21;1.85;;;0.70;;
63173;SDS011;49265;54.526;9.028;2024-01-15T09:06:47;2.70;;;0.77;;
63173;SDS011;49265;54.526;9.028;2024-01-15T09:09:12;5.95;;;1.00;;
63173;SDS011;49265;54.526;9.028;2024-01-15T09:11:38;1.50;;;0.60;;
63173;SDS011;49265;54.526;9.028;2024-01-15T09:14:03;2.22;;;0.80;;
63173;SDS011;49265;54.526;9.028;2024-01-15T09:16:29;4.73;;;1.37;;
63173;SDS011;49265;54.526;9.028;2024-01-15T09:18:54;4.82;;;1.50;;
63173;SDS011;49265;54.526;9.028;2024-01-15T09:21:22;3.15;;;1.10;;
63173;SDS011;49265;54.526;9.028;2024-01-15T09:23:47;5.45;;;1.10;;
63173;SDS011;49265;54.526;9.028;2024-01-15T09:26:12;3.30;;;1.13;;
63173;SDS011;49265;54.526;9.028;2024-01-15T09:28:38;6.40;;;2.03;;
63173;SDS011;49265;54.526;9.028;2024-01-15T09:31:03;2.05;;;1.00;;
63173;SDS011;49265;54.526;9.028;2024-01-15T09:33:28;2.65;;;1.00;;
63173;SDS011;49265;54.526;9.028;2024-01-15T09:35:54;3.80;;;1.40;;
63173;SDS011;49265;54.526;9.028;2024-01-15T09:38:19;5.13;;;0.95;;
63173;SDS011;49265;54.526;9.028;2024-01-15T09:40:45;3.97;;;0.80;;
63173;SDS011;49265;54.526;9.028;2024-01-15T09:43:11;3.28;;;1.45;;
63173;SDS011;49265;54.526;9.028;2024-01-15T09:45:37;3.88;;;0.93;;
63173;SDS011;49265;54.526;9.028;2024-01-15T09:48:03;4.57;;;0.98;;
63173;SDS011;49265;54.526;9.028;2024-01-15T09:50:28;2.13;;;0.80;;
63173;SDS011;49265;54.526;9.028;2024-01-15T09:52:54;1.45;;;0.82;;
63173;SDS011;49265;54.526;9.028;2024-01-15T09:55:19;7.97;;;1.27;;
63173;SDS011;49265;54.526;9.028;2024-01-15T09:57:45;2.70;;;0.90;;
63173;SDS011;49265;54.526;9.028;2024-01-15T10:00:14;5.50;;;1.05;;
63173;SDS011;49265;54.526;9.028;2024-01-15T10:02:39;2.22;;;0.90;;
63173;SDS011;49265;54.526;9.028;2024-01-15T10:05:05;3.85;;;0.65;;
63173;SDS011;49265;54.526;9.028;2024-01-15T10:07:30;2.42;;;1.08;;
63173;SDS011;49265;54.526;9.028;2024-01-15T10:10:00;1.20;;;0.93;;
63173;SDS011;49265;54.526;9.028;2024-01-15T10:12:25;3.47;;;0.90;;
63173;SDS011;49265;54.526;9.028;2024-01-15T10:14:52;7.43;;;1.05;;
63173;SDS011;49265;54.526;9.028;2024-01-15T10:17:17;3.10;;;1.25;;
63173;SDS011;49265;54.526;9.028;2024-01-15T10:19:43;3.22;;;1.23;;
63173;SDS011;49265;54.526;9.028;2024-01-15T10:22:08;2.15;;;1.58;;
63173;SDS011;49265;54.526;9.028;2024-01-15T10:24:37;2.30;;;0.77;;
63173;SDS011;49265;54.526;9.028;2024-01-15T10:27:10;6.85;;;1.20;;
63173;SDS011;49265;54.526;9.028;2024-01-15T10:29:35;2.78;;;1.50;;
63173;SDS011;49265;54.526;9.028;2024-01-15T10:32:02;5.65;;;1.23;;
63173;SDS011;49265;54.526;9.028;2024-01-15T10:34:27;7.30;;;1.45;;
63173;SDS011;49265;54.526;9.028;2024-01-15T10:36:53;3.80;;;1.13;;
63173;SDS011;49265;54.526;9.028;2024-01-15T10:39:24;2.80;;;1.45;;
63173;SDS011;49265;54.526;9.028;2024-01-15T10:41:49;4.60;;;1.23;;
63173;SDS011;49265;54.526;9.028;2024-01-15T10:44:16;4.13;;;1.70;;
63173;SDS011;49265;54.526;9.028;2024-01-15T10:46:41;8.25;;;1.80;;
63173;SDS011;49265;54.526;9.028;2024-01-15T10:49:07;3.97;;;1.80;;
63173;SDS011;49265;54.526;9.028;2024-01-15T10:51:32;4.40;;;1.60;;
63173;SDS011;49265;54.526;9.028;2024-01-15T10:53:58;2.30;;;1.40;;
63173;SDS011;49265;54.526;9.028;2024-01-15T10:56:25;5.35;;;1.48;;
63173;SDS011;49265;54.526;9.028;2024-01-15T10:58:50;5.10;;;1.20;;
63173;SDS011;49265;54.526;9.028;2024-01-15T11:01:16;3.40;;;1.30;;
63173;SDS011;49265;54.526;9.028;2024-01-15T11:03:42;7.30;;;1.60;;
63173;SDS011;49265;54.526;9.028;2024-01-15T11:06:17;2.70;;;1.10;;
63173;SDS011;49265;54.526;9.028;2024-01-15T11:08:48;4.50;;;1.10;;
63173;SDS011;49265;54.526;9.028;2024-01-15T11:11:15;2.10;;;1.17;;
63173;SDS011;49265;54.526;9.028;2024-01-15T11:13:41;4.35;;;1.25;;
63173;SDS011;49265;54.526;9.028;2024-01-15T11:16:10;3.95;;;1.20;;
63173;SDS011;49265;54.526;9.028;2024-01-15T11:18:36;4.47;;;1.33;;
63173;SDS011;49265;54.526;9.028;2024-01-15T11:21:23;5.30;;;1.20;;
63173;SDS011;49265;54.526;9.028;2024-01-15T11:23:49;5.63;;;1.42;;
63173;SDS011;49265;54.526;9.028;2024-01-15T11:31:25;4.30;;;1.30;;
63173;SDS011;49265;54.526;9.028;2024-01-15T11:33:51;3.85;;;1.45;;
63173;SDS011;49265;54.526;9.028;2024-01-15T11:36:16;4.85;;;1.48;;
63173;SDS011;49265;54.526;9.028;2024-01-15T11:38:42;4.55;;;1.00;;
63173;SDS011;49265;54.526;9.028;2024-01-15T11:41:14;3.00;;;0.95;;
63173;SDS011;49265;54.526;9.028;2024-01-15T11:43:42;1.90;;;0.70;;
63173;SDS011;49265;54.526;9.028;2024-01-15T11:46:11;5.65;;;0.80;;
63173;SDS011;49265;54.526;9.028;2024-01-15T11:48:43;4.82;;;0.88;;
63173;SDS011;49265;54.526;9.028;2024-01-15T11:51:12;1.85;;;0.90;;
63173;SDS011;49265;54.526;9.028;2024-01-15T11:53:47;3.10;;;0.70;;
63173;SDS011;49265;54.526;9.028;2024-01-15T11:56:17;3.67;;;0.75;;
63173;SDS011;49265;54.526;9.028;2024-01-15T11:58:42;3.38;;;0.80;;
63173;SDS011;49265;54.526;9.028;2024-01-15T12:01:08;3.25;;;0.60;;
63173;SDS011;49265;54.526;9.028;2024-01-15T12:03:34;5.43;;;1.20;;
63173;SDS011;49265;54.526;9.028;2024-01-15T12:06:00;1.77;;;0.68;;
63173;SDS011;49265;54.526;9.028;2024-01-15T12:08:25;1.15;;;0.70;;
63173;SDS011;49265;54.526;9.028;2024-01-15T12:10:52;4.03;;;1.20;;
63173;SDS011;49265;54.526;9.028;2024-01-15T12:13:17;4.35;;;0.68;;
63173;SDS011;49265;54.526;9.028;2024-01-15T12:15:43;2.95;;;0.80;;
63173;SDS011;49265;54.526;9.028;2024-01-15T12:18:09;3.17;;;0.63;;
63173;SDS011;49265;54.526;9.028;2024-01-15T12:20:35;5.93;;;1.30;;
63173;SDS011;49265;54.526;9.028;2024-01-15T12:23:01;1.38;;;0.68;;
63173;SDS011;49265;54.526;9.028;2024-01-15T12:25:28;4.75;;;0.95;;
63173;SDS011;49265;54.526;9.028;2024-01-15T12:27:54;2.72;;;1.52;;
63173;SDS011;49265;54.526;9.028;2024-01-15T12:30:19;3.25;;;0.88;;
63173;SDS011;49265;54.526;9.028;2024-01-15T12:32:45;2.55;;;0.80;;
63173;SDS011;49265;54.526;9.028;2024-01-15T12:35:12;3.65;;;1.10;;
63173;SDS011;49265;54.526;9.028;2024-01-15T12:37:40;2.35;;;0.90;;
63173;SDS011;49265;54.526;9.028;2024-01-15T12:40:06;3.88;;;0.95;;
63173;SDS011;49265;54.526;9.028;2024-01-15T12:42:32;2.80;;;0.80;;
63173;SDS011;49265;54.526;9.028;2024-01-15T12:44:57;2.28;;;0.80;;
63173;SDS011;49265;54.526;9.028;2024-01-15T12:47:23;4.88;;;1.00;;
63173;SDS011;49265;54.526;9.028;2024-01-15T12:49:48;1.15;;;0.68;;
63173;SDS011;49265;54.526;9.028;2024-01-15T12:52:19;1.67;;;0.75;;
63173;SDS011;49265;54.526;9.028;2024-01-15T12:54:44;2.58;;;0.70;;
63173;SDS011;49265;54.526;9.028;2024-01-15T12:57:10;2.83;;;0.70;;
63173;SDS011;49265;54.526;9.028;2024-01-15T12:59:35;3.75;;;0.95;;
63173;SDS011;49265;54.526;9.028;2024-01-15T13:02:00;4.53;;;0.95;;
63173;SDS011;49265;54.526;9.028;2024-01-15T13:04:26;3.40;;;1.02;;
63173;SDS011;49265;54.526;9.028;2024-01-15T13:06:51;2.15;;;0.80;;
63173;SDS011;49265;54.526;9.028;2024-01-15T13:09:17;3.83;;;0.75;;
63173;SDS011;49265;54.526;9.028;2024-01-15T13:11:43;1.15;;;0.73;;
63173;SDS011;49265;54.526;9.028;2024-01-15T13:14:09;2.42;;;0.95;;
63173;SDS011;49265;54.526;9.028;2024-01-15T13:16:34;2.20;;;1.65;;
63173;SDS011;49265;54.526;9.028;2024-01-15T13:19:00;1.13;;;0.85;;
63173;SDS011;49265;54.526;9.028;2024-01-15T13:21:25;4.05;;;1.10;;
63173;SDS011;49265;54.526;9.028;2024-01-15T13:23:50;3.30;;;0.70;;
63173;SDS011;49265;54.526;9.028;2024-01-15T13:26:22;3.08;;;0.95;;
63173;SDS011;49265;54.526;9.028;2024-01-15T13:28:47;2.80;;;0.80;;
63173;SDS011;49265;54.526;9.028;2024-01-15T13:31:13;8.10;;;1.90;;
63173;SDS011;49265;54.526;9.028;2024-01-15T13:33:42;1.60;;;1.00;;
63173;SDS011;49265;54.526;9.028;2024-01-15T13:36:07;4.38;;;1.00;;
63173;SDS011;49265;54.526;9.028;2024-01-15T13:38:36;2.10;;;1.20;;
63173;SDS011;49265;54.526;9.028;2024-01-15T13:41:03;2.00;;;1.25;;
63173;SDS011;49265;54.526;9.028;2024-01-15T13:43:28;4.07;;;1.10;;
63173;SDS011;49265;54.526;9.028;2024-01-15T13:45:53;10.13;;;2.42;;
63173;SDS011;49265;54.526;9.028;2024-01-15T13:48:19;5.57;;;2.80;;
63173;SDS011;49265;54.526;9.028;2024-01-15T13:50:45;5.75;;;2.60;;
63173;SDS011;49265;54.526;9.028;2024-01-15T13:53:10;6.00;;;1.80;;
63173;SDS011;49265;54.526;9.028;2024-01-15T13:55:36;2.22;;;1.67;;
63173;SDS011;49265;54.526;9.028;2024-01-15T13:58:04;5.88;;;3.13;;
63173;SDS011;49265;54.526;9.028;2024-01-15T14:00:31;10.88;;;4.75;;
63173;SDS011;49265;54.526;9.028;2024-01-15T14:02:56;5.35;;;2.13;;
63173;SDS011;49265;54.526;9.028;2024-01-15T14:05:22;6.70;;;3.92;;
63173;SDS011;49265;54.526;9.028;2024-01-15T14:07:48;9.00;;;4.35;;
63173;SDS011;49265;54.526;9.028;2024-01-15T14:10:13;3.55;;;1.80;;
63173;SDS011;49265;54.526;9.028;2024-01-15T14:12:38;3.75;;;1.88;;
63173;SDS011;49265;54.526;9.028;2024-01-15T14:15:05;2.95;;;0.93;;
63173;SDS011;49265;54.526;9.028;2024-01-15T14:17:30;5.22;;;1.92;;
63173;SDS011;49265;54.526;9.028;2024-01-15T14:19:56;6.13;;;1.83;;
63173;SDS011;49265;54.526;9.028;2024-01-15T14:22:21;9.57;;;2.42;;
63173;SDS011;49265;54.526;9.028;2024-01-15T14:24:46;4.57;;;1.75;;
63173;SDS011;49265;54.526;9.028;2024-01-15T14:27:12;5.38;;;2.05;;
63173;SDS011;49265;54.526;9.028;2024-01-15T14:29:37;5.10;;;1.55;;
63173;SDS011;49265;54.526;9.028;2024-01-15T14:32:03;7.05;;;1.48;;
63173;SDS011;49265;54.526;9.028;2024-01-15T14:34:29;5.90;;;1.88;;
63173;SDS011;49265;54.526;9.028;2024-01-15T14:36:54;5.88;;;1.75;;